Lake View, NY (14085)

7:46 PM EDT on March 28, 2015 (GMT -0400)
Eden | Change Station
CLOSE
Current Station
Personal Weather Station
Location: Eden, NY
Elevation: 1010 ft
Nearby Weather Stations

Elev 1010 ft 42.65 °N, 78.87 °W | Updated 11 minutes ago

Clear
Clear
21.0 °F
Feels Like 21 °F
N
1.0
Wind Variable Wind from SSW
Gusts 8.0 mph

Today
High -- | Low -- °F
--% Chance of Precip.
Yesterday
High -- | Low -- °F
Precip. -- in
7:05 AM 7:36 PM
Waxing Gibbous, 66% visible
Pressure 30.17 in
Visibility 10.0 miles
Clouds Few 4000 ft
Windchill 21 °F
Dew Point 10 °F
Humidity 63%
Rainfall 0.00 in
Snow Depth Not available.
UV 0 out of 12
Pollen 1.20 out of 12
PM2.5 Good
Flu Activity Widespread
METAR KBUF 282254Z 31006KT 10SM FEW040 M03/M15 A3017

More Conditions Fewer Conditions

Pressure 30.17 in
Visibility 10.0 miles
Clouds Few 4000 ft
Windchill 21 °F
Dew Point 10 °F
Humidity 63%
Rainfall 0.00 in
Snow Depth Not available.
UV 0 out of 12
Pollen 1.20 out of 12
PM2.5 Good
Flu Activity Widespread
METAR KBUF 282254Z 31006KT 10SM FEW040 M03/M15 A3017

More Conditions Fewer Conditions

10-Day Weather Forecast

Almanac

Astronomy

Mar. 28, 2015 Rise Set
Actual Time 7:05 AM EDT 7:36 PM EDT
Civil Twilight 6:37 AM EDT 8:05 PM EDT
Nautical Twilight 6:03 AM EDT 8:38 PM EDT
Astronomical Twilight 5:29 AM EDT 9:13 PM EDT
Moon 1:29 PM EDT 3:16 AM EDT
Length of Visible Light 13h 28m
Length of Day
12h 31m
Tomorrow will be 2m 54s longer.
Waxing Gibbous, 66% of the Moon is Illuminated
Today
Waxing Gibbous
Apr 4
Full
Apr 11
Last Quarter
Apr 18
New
Apr 25
First Quarter

Today's Extremes

State Highs State Lows

Community

WunderPhotos

Upload Photos

1,809,128 photos uploaded!

WunderBlogs® & News

Nearby

Air Quality

  Air Quality AQ Index Pollutant
Yesterday Good
OZONE
Yesterday Good
PM2.5
Current Good
PM2.5
Saturday Good
PM2.5
Sunday Good
PM2.5
Monday Good
PM2.5

Snow Depth

Station Depth Elevation
No new snow has been reported.

Earthquake Activity

City Distance Mag. Time & Date
No recent earthquake activity has been reported nearby.
Minimum magnitude displayed is 2.5.

Coastal Water Temperatures

Place Temperature
Buffalo, NY 33.1 °F

Nearby Weather Stations